Time;durP1;ratioP1;P1;durP2;ratioP2;P2;SDS_P1;SDS_P2;PMS_P1;PMS_P2;Temp;Humidity;BMP_temperature;BMP_pressure;BME280_temperature;BME280_humidity;BME280_pressure;Samples;Min_cycle;Max_cycle;Signal;HPM_P1;HPM_P2
2021/11/28 00:01:39;;;;;;;105.90;37.37;;;;;;;;;;759205;182;919299;-66
2021/11/28 00:04:05;;;;;;;110.17;38.40;;;;;;;;;;756262;182;925193;-67
2021/11/28 00:06:33;;;;;;;111.62;37.85;;;;;;;;;;755696;182;918865;-67
2021/11/28 00:09:25;;;;;;;112.33;39.50;;;;;;;;;;753873;182;935641;-65
2021/11/28 00:11:36;;;;;;;112.77;36.60;;;;;;;;;;759742;182;919790;-67
2021/11/28 00:14:08;;;;;;;131.00;40.97;;;;;;;;;;756181;182;919319;-67
2021/11/28 00:16:31;;;;;;;111.77;38.47;;;;;;;;;;754397;182;919095;-66
2021/11/28 00:18:56;;;;;;;120.73;40.73;;;;;;;;;;754953;182;919724;-66
2021/11/28 00:21:22;;;;;;;123.10;40.00;;;;;;;;;;760583;182;919595;-67
2021/11/28 00:23:48;;;;;;;120.20;41.40;;;;;;;;;;750953;182;919199;-65
2021/11/28 00:26:14;;;;;;;131.80;40.87;;;;;;;;;;753995;182;919435;-66
2021/11/28 00:28:40;;;;;;;122.80;40.03;;;;;;;;;;759112;182;927947;-66
2021/11/28 00:31:06;;;;;;;112.47;35.77;;;;;;;;;;755876;182;922096;-66
2021/11/28 00:33:31;;;;;;;116.83;39.90;;;;;;;;;;755697;182;919475;-67
2021/11/28 00:35:57;;;;;;;104.00;36.33;;;;;;;;;;757595;182;917891;-64
2021/11/28 00:38:23;;;;;;;106.33;36.93;;;;;;;;;;755343;185;918796;-66
2021/11/28 00:40:49;;;;;;;108.60;40.00;;;;;;;;;;759086;182;918071;-66
2021/11/28 00:43:16;;;;;;;93.23;34.03;;;;;;;;;;754355;182;919195;-65
2021/11/28 00:45:41;;;;;;;102.03;37.67;;;;;;;;;;761405;182;725758;-65
2021/11/28 00:48:07;;;;;;;121.25;40.40;;;;;;;;;;752001;182;919551;-64
2021/11/28 00:53:05;;;;;;;102.40;39.23;;;;;;;;;;754896;182;918979;-63
2021/11/28 00:55:30;;;;;;;110.67;38.03;;;;;;;;;;757000;182;920212;-65
2021/11/28 00:57:56;;;;;;;110.30;37.97;;;;;;;;;;759171;182;919731;-64
2021/11/28 01:00:22;;;;;;;87.60;34.27;;;;;;;;;;756742;182;918904;-65
2021/11/28 01:02:48;;;;;;;107.20;37.13;;;;;;;;;;766485;182;918786;-65
2021/11/28 01:05:14;;;;;;;89.63;38.83;;;;;;;;;;755660;182;919444;-64
2021/11/28 01:07:39;;;;;;;106.70;39.80;;;;;;;;;;754921;182;923876;-66
2021/11/28 01:10:07;;;;;;;129.97;42.70;;;;;;;;;;761287;182;918588;-65
2021/11/28 01:12:33;;;;;;;116.50;42.43;;;;;;;;;;762752;182;917892;-68
2021/11/28 01:14:58;;;;;;;122.45;43.33;;;;;;;;;;761174;182;918796;-64
2021/11/28 01:17:26;;;;;;;120.87;43.05;;;;;;;;;;759617;182;919394;-65
2021/11/28 01:19:50;;;;;;;116.83;40.03;;;;;;;;;;752582;186;919727;-65
2021/11/28 01:22:16;;;;;;;115.87;43.10;;;;;;;;;;759684;182;919463;-66
2021/11/28 01:24:43;;;;;;;131.63;43.80;;;;;;;;;;755307;182;919529;-66
2021/11/28 01:27:08;;;;;;;165.70;48.50;;;;;;;;;;758715;182;919248;-65
2021/11/28 01:29:34;;;;;;;132.53;43.13;;;;;;;;;;754364;182;919497;-65
2021/11/28 01:32:01;;;;;;;136.83;46.57;;;;;;;;;;746522;184;919860;-66
2021/11/28 01:34:26;;;;;;;137.70;46.93;;;;;;;;;;762554;182;628257;-66
2021/11/28 01:36:51;;;;;;;130.97;39.90;;;;;;;;;;759411;183;920082;-64
2021/11/28 01:39:17;;;;;;;132.53;42.33;;;;;;;;;;755473;182;919748;-66
2021/11/28 01:41:43;;;;;;;136.50;41.27;;;;;;;;;;757717;184;919236;-65
2021/11/28 01:44:09;;;;;;;123.33;40.30;;;;;;;;;;762658;182;920705;-67
2021/11/28 01:46:35;;;;;;;132.47;45.20;;;;;;;;;;768116;182;621165;-67
2021/11/28 01:49:01;;;;;;;129.70;42.73;;;;;;;;;;762369;183;635114;-66
2021/11/28 01:51:27;;;;;;;116.47;42.53;;;;;;;;;;759151;184;918827;-65
2021/11/28 01:53:53;;;;;;;107.43;39.43;;;;;;;;;;758909;183;919420;-65
2021/11/28 01:56:19;;;;;;;112.40;41.40;;;;;;;;;;758581;183;919449;-65
2021/11/28 01:58:44;;;;;;;117.20;41.50;;;;;;;;;;754436;182;1021787;-66
2021/11/28 02:01:10;;;;;;;122.53;41.77;;;;;;;;;;755265;182;1073983;-66
2021/11/28 02:03:39;;;;;;;114.83;41.80;;;;;;;;;;755734;183;919601;-65
2021/11/28 02:06:02;;;;;;;135.07;43.80;;;;;;;;;;760349;184;919286;-66
2021/11/28 02:08:28;;;;;;;120.67;45.53;;;;;;;;;;755007;184;919659;-68
2021/11/28 02:10:54;;;;;;;124.73;42.53;;;;;;;;;;758843;183;919639;-68
2021/11/28 02:13:19;;;;;;;118.97;43.30;;;;;;;;;;752224;182;918335;-68
2021/11/28 02:15:46;;;;;;;104.57;41.50;;;;;;;;;;758423;184;919403;-67
2021/11/28 02:18:11;;;;;;;135.53;44.93;;;;;;;;;;759103;182;1021588;-67
2021/11/28 02:20:43;;;;;;;125.70;42.83;;;;;;;;;;752767;182;920114;-66
2021/11/28 02:23:08;;;;;;;117.60;42.43;;;;;;;;;;766092;182;918755;-67
2021/11/28 02:25:35;;;;;;;124.93;43.77;;;;;;;;;;759684;182;918755;-67
2021/11/28 02:28:00;;;;;;;136.43;41.43;;;;;;;;;;756071;183;1021579;-67
2021/11/28 02:30:26;;;;;;;127.30;42.50;;;;;;;;;;752607;182;918954;-67
2021/11/28 02:32:52;;;;;;;139.83;42.87;;;;;;;;;;760243;182;919283;-67
2021/11/28 02:35:18;;;;;;;124.67;43.07;;;;;;;;;;755434;182;918541;-67
2021/11/28 02:37:44;;;;;;;122.63;44.53;;;;;;;;;;759260;182;928238;-67
2021/11/28 02:40:10;;;;;;;113.07;40.93;;;;;;;;;;761393;183;919224;-66
2021/11/28 02:42:36;;;;;;;134.10;42.53;;;;;;;;;;753746;183;920443;-67
2021/11/28 02:45:02;;;;;;;133.77;41.40;;;;;;;;;;749302;182;919282;-67
2021/11/28 02:47:28;;;;;;;124.30;41.67;;;;;;;;;;766750;182;918676;-67
2021/11/28 02:49:54;;;;;;;120.40;40.12;;;;;;;;;;759326;182;920022;-68
2021/11/28 02:52:20;;;;;;;126.27;42.63;;;;;;;;;;759720;182;919806;-67
2021/11/28 02:54:45;;;;;;;106.67;39.03;;;;;;;;;;758462;182;959555;-65
2021/11/28 02:57:11;;;;;;;116.32;43.55;;;;;;;;;;763118;181;915373;-67
2021/11/28 02:59:37;;;;;;;117.73;41.47;;;;;;;;;;755659;182;1121048;-67
2021/11/28 03:02:03;;;;;;;108.57;43.07;;;;;;;;;;749566;182;919278;-67
2021/11/28 03:04:29;;;;;;;147.10;44.05;;;;;;;;;;765106;183;919802;-67
2021/11/28 03:06:55;;;;;;;105.20;41.53;;;;;;;;;;752584;183;1014087;-67
2021/11/28 03:09:21;;;;;;;113.23;40.73;;;;;;;;;;753217;184;919732;-69
2021/11/28 03:11:46;;;;;;;119.43;41.70;;;;;;;;;;760352;184;712036;-68
2021/11/28 03:14:12;;;;;;;139.83;45.10;;;;;;;;;;752944;184;919785;-67
2021/11/28 03:16:38;;;;;;;108.50;40.25;;;;;;;;;;756090;182;920406;-68
2021/11/28 03:19:04;;;;;;;108.37;37.07;;;;;;;;;;761821;182;919732;-68
2021/11/28 03:21:30;;;;;;;106.47;44.37;;;;;;;;;;757492;182;919994;-67
2021/11/28 03:23:56;;;;;;;117.63;41.93;;;;;;;;;;757429;182;919870;-67
2021/11/28 03:26:22;;;;;;;103.17;40.70;;;;;;;;;;754971;182;918888;-67
2021/11/28 03:28:48;;;;;;;129.20;47.40;;;;;;;;;;758355;182;919353;-67
2021/11/28 03:31:14;;;;;;;124.03;42.20;;;;;;;;;;756259;182;916660;-67
2021/11/28 03:33:40;;;;;;;136.85;45.97;;;;;;;;;;758027;182;1017367;-67
2021/11/28 03:36:06;;;;;;;110.97;41.17;;;;;;;;;;761325;182;922064;-67
2021/11/28 03:38:32;;;;;;;124.40;41.27;;;;;;;;;;756178;183;915910;-67
2021/11/28 03:40:58;;;;;;;126.20;43.67;;;;;;;;;;755988;182;919172;-67
2021/11/28 03:43:24;;;;;;;143.63;46.30;;;;;;;;;;764960;182;919338;-66
2021/11/28 03:45:50;;;;;;;144.53;46.70;;;;;;;;;;758851;182;919287;-67
2021/11/28 03:48:15;;;;;;;123.57;47.07;;;;;;;;;;759593;182;918862;-66
2021/11/28 03:50:41;;;;;;;130.13;46.77;;;;;;;;;;756672;183;1020752;-67
2021/11/28 03:53:07;;;;;;;119.50;45.20;;;;;;;;;;761934;183;920117;-66
2021/11/28 03:55:33;;;;;;;123.20;44.47;;;;;;;;;;749219;183;1021735;-66
2021/11/28 03:57:59;;;;;;;125.20;42.17;;;;;;;;;;753943;184;933325;-66
2021/11/28 04:00:25;;;;;;;112.17;42.87;;;;;;;;;;758093;182;918819;-66
2021/11/28 04:02:51;;;;;;;130.27;41.60;;;;;;;;;;749447;182;919532;-67
2021/11/28 04:05:16;;;;;;;119.87;43.00;;;;;;;;;;754218;182;919562;-67
2021/11/28 04:07:42;;;;;;;114.30;41.30;;;;;;;;;;758759;184;919535;-67
2021/11/28 04:10:08;;;;;;;115.50;44.77;;;;;;;;;;757722;183;919512;-66
2021/11/28 04:12:34;;;;;;;105.87;39.47;;;;;;;;;;760350;183;919450;-67
2021/11/28 04:15:00;;;;;;;135.97;44.20;;;;;;;;;;758474;184;919683;-66
2021/11/28 04:17:26;;;;;;;115.97;39.57;;;;;;;;;;758017;183;919521;-67
2021/11/28 04:19:52;;;;;;;128.30;41.17;;;;;;;;;;759880;183;919514;-67
2021/11/28 04:22:17;;;;;;;112.33;41.27;;;;;;;;;;751166;182;919645;-66
2021/11/28 04:24:43;;;;;;;136.17;43.43;;;;;;;;;;767884;182;916543;-66
2021/11/28 04:27:09;;;;;;;118.83;45.03;;;;;;;;;;759938;182;918566;-67
2021/11/28 04:29:35;;;;;;;130.27;45.53;;;;;;;;;;755749;183;919254;-67
2021/11/28 04:32:01;;;;;;;124.60;43.53;;;;;;;;;;762493;182;919051;-69
2021/11/28 04:34:27;;;;;;;136.90;42.10;;;;;;;;;;761102;181;1018780;-66
2021/11/28 04:36:53;;;;;;;127.37;42.00;;;;;;;;;;754973;182;916709;-71
2021/11/28 04:39:19;;;;;;;121.82;39.88;;;;;;;;;;753084;182;916161;-66
2021/11/28 04:41:45;;;;;;;124.67;44.00;;;;;;;;;;748833;187;920357;-67
2021/11/28 04:44:11;;;;;;;128.80;40.10;;;;;;;;;;760065;184;919274;-67
2021/11/28 04:46:37;;;;;;;123.83;39.57;;;;;;;;;;758030;183;919096;-67
2021/11/28 04:49:03;;;;;;;121.50;43.17;;;;;;;;;;765558;182;919825;-67
2021/11/28 04:51:29;;;;;;;121.27;41.70;;;;;;;;;;756552;183;920320;-67
2021/11/28 04:53:55;;;;;;;135.63;41.63;;;;;;;;;;755901;182;919501;-66
2021/11/28 04:56:21;;;;;;;118.20;40.27;;;;;;;;;;762238;182;919552;-66
2021/11/28 04:58:47;;;;;;;111.03;40.03;;;;;;;;;;758081;183;1046447;-66
2021/11/28 05:01:13;;;;;;;105.77;42.63;;;;;;;;;;752700;184;919415;-66
2021/11/28 05:03:39;;;;;;;99.78;37.35;;;;;;;;;;755197;184;919232;-66
2021/11/28 05:06:05;;;;;;;111.57;40.03;;;;;;;;;;758521;182;917953;-66
2021/11/28 05:08:31;;;;;;;117.40;40.07;;;;;;;;;;761257;182;919738;-66
2021/11/28 05:10:57;;;;;;;114.88;40.75;;;;;;;;;;756288;183;919155;-67
2021/11/28 05:13:23;;;;;;;112.03;39.80;;;;;;;;;;762260;183;1021001;-68
2021/11/28 05:15:49;;;;;;;111.00;41.23;;;;;;;;;;758052;182;919403;-67
2021/11/28 05:18:14;;;;;;;126.07;41.37;;;;;;;;;;757356;182;918940;-66
2021/11/28 05:20:40;;;;;;;129.53;40.60;;;;;;;;;;764702;182;919339;-66
2021/11/28 05:23:06;;;;;;;98.27;39.00;;;;;;;;;;761134;183;919347;-67
2021/11/28 05:25:35;;;;;;;114.90;42.10;;;;;;;;;;754713;184;919058;-67
2021/11/28 05:27:59;;;;;;;104.57;38.30;;;;;;;;;;754958;182;919062;-67
2021/11/28 05:30:25;;;;;;;108.83;37.00;;;;;;;;;;757740;183;919719;-68
2021/11/28 05:32:50;;;;;;;102.63;36.97;;;;;;;;;;748827;184;918869;-67
2021/11/28 05:35:16;;;;;;;105.45;37.58;;;;;;;;;;758989;182;919088;-67
2021/11/28 05:37:42;;;;;;;98.10;34.20;;;;;;;;;;768247;182;919330;-67
2021/11/28 05:40:09;;;;;;;121.63;48.37;;;;;;;;;;758281;183;919059;-68
2021/11/28 05:42:34;;;;;;;113.40;43.23;;;;;;;;;;755939;184;919174;-68
2021/11/28 05:45:01;;;;;;;105.03;40.60;;;;;;;;;;762283;182;919502;-68
2021/11/28 05:47:26;;;;;;;112.13;38.67;;;;;;;;;;761861;182;918324;-68
2021/11/28 05:49:52;;;;;;;144.37;43.77;;;;;;;;;;761480;182;919057;-68
2021/11/28 05:52:18;;;;;;;124.63;39.97;;;;;;;;;;768840;182;918802;-68
2021/11/28 05:54:46;;;;;;;121.07;40.97;;;;;;;;;;760195;182;919295;-68
2021/11/28 05:57:09;;;;;;;112.18;43.92;;;;;;;;;;755796;182;919150;-68
2021/11/28 05:59:35;;;;;;;130.23;49.03;;;;;;;;;;755270;184;919678;-68
2021/11/28 06:02:01;;;;;;;118.72;41.05;;;;;;;;;;763371;183;918436;-68
2021/11/28 06:04:27;;;;;;;124.20;39.90;;;;;;;;;;757177;182;1024066;-68
2021/11/28 06:06:53;;;;;;;105.37;38.03;;;;;;;;;;760504;182;1019662;-68
2021/11/28 06:09:19;;;;;;;119.90;40.27;;;;;;;;;;764728;182;1020205;-68
2021/11/28 06:11:45;;;;;;;117.37;39.90;;;;;;;;;;758832;182;919957;-68
2021/11/28 06:14:10;;;;;;;141.47;42.07;;;;;;;;;;760724;182;920008;-66
2021/11/28 06:16:36;;;;;;;112.80;37.93;;;;;;;;;;761070;183;918816;-68
2021/11/28 06:19:02;;;;;;;98.83;34.97;;;;;;;;;;755610;183;919549;-68
2021/11/28 06:21:28;;;;;;;108.63;38.33;;;;;;;;;;754742;182;1021607;-69
2021/11/28 06:23:54;;;;;;;113.63;39.17;;;;;;;;;;762223;182;920092;-67
2021/11/28 06:26:20;;;;;;;110.70;36.63;;;;;;;;;;755539;182;919000;-68
2021/11/28 06:28:45;;;;;;;114.17;38.47;;;;;;;;;;757724;182;921065;-69
2021/11/28 06:31:11;;;;;;;119.23;39.87;;;;;;;;;;753111;182;919309;-68
2021/11/28 06:33:37;;;;;;;106.70;39.90;;;;;;;;;;759941;182;1021456;-69
2021/11/28 06:36:03;;;;;;;121.50;44.17;;;;;;;;;;752515;182;919275;-68
2021/11/28 06:38:29;;;;;;;134.77;43.23;;;;;;;;;;749493;184;919093;-68
2021/11/28 06:40:55;;;;;;;132.87;41.80;;;;;;;;;;757237;184;918085;-68
2021/11/28 06:43:21;;;;;;;123.60;40.33;;;;;;;;;;752409;184;959185;-69
2021/11/28 06:45:47;;;;;;;157.57;45.63;;;;;;;;;;752968;182;919349;-68
2021/11/28 06:48:14;;;;;;;122.65;40.05;;;;;;;;;;758921;182;919570;-68
2021/11/28 06:50:39;;;;;;;121.53;36.30;;;;;;;;;;754337;186;919017;-68
2021/11/28 06:53:05;;;;;;;130.13;46.90;;;;;;;;;;751450;186;919272;-68
2021/11/28 06:55:31;;;;;;;146.77;53.25;;;;;;;;;;758395;182;919143;-68
2021/11/28 06:57:57;;;;;;;155.43;45.17;;;;;;;;;;763923;182;919102;-68
2021/11/28 07:00:23;;;;;;;130.10;42.40;;;;;;;;;;761187;182;919147;-68
2021/11/28 07:02:49;;;;;;;171.10;52.00;;;;;;;;;;753968;182;918408;-68
2021/11/28 07:05:14;;;;;;;148.03;44.17;;;;;;;;;;763197;182;918005;-67
2021/11/28 07:07:40;;;;;;;139.35;48.63;;;;;;;;;;756662;182;921705;-69
2021/11/28 07:10:06;;;;;;;147.10;45.00;;;;;;;;;;759887;182;918869;-68
2021/11/28 07:12:32;;;;;;;133.33;53.60;;;;;;;;;;762932;182;918730;-68
2021/11/28 07:14:58;;;;;;;156.30;52.20;;;;;;;;;;754058;182;918572;-67
2021/11/28 07:17:24;;;;;;;134.17;51.53;;;;;;;;;;756622;182;968082;-67
2021/11/28 07:19:50;;;;;;;130.00;44.37;;;;;;;;;;759926;182;965632;-70
2021/11/28 07:22:16;;;;;;;142.03;49.03;;;;;;;;;;763272;182;918974;-68
2021/11/28 07:24:42;;;;;;;176.17;55.13;;;;;;;;;;754464;184;919690;-68
2021/11/28 07:27:08;;;;;;;183.63;61.60;;;;;;;;;;749670;182;1021492;-68
2021/11/28 07:29:33;;;;;;;211.82;67.43;;;;;;;;;;759772;183;919290;-67
2021/11/28 07:31:59;;;;;;;248.13;93.93;;;;;;;;;;754066;182;918622;-67
2021/11/28 07:34:25;;;;;;;230.60;78.20;;;;;;;;;;757106;182;919341;-68
2021/11/28 07:36:51;;;;;;;216.43;71.40;;;;;;;;;;758635;182;918972;-67
2021/11/28 07:39:18;;;;;;;223.60;66.57;;;;;;;;;;754810;182;919050;-67
2021/11/28 07:41:43;;;;;;;190.33;60.63;;;;;;;;;;756610;182;919612;-67
2021/11/28 07:44:09;;;;;;;185.10;67.50;;;;;;;;;;750418;182;919594;-67
2021/11/28 07:46:35;;;;;;;184.60;59.23;;;;;;;;;;757025;182;918628;-67
2021/11/28 07:49:01;;;;;;;166.47;55.60;;;;;;;;;;747205;184;918675;-68
2021/11/28 07:51:27;;;;;;;151.93;50.05;;;;;;;;;;755963;182;919189;-67
2021/11/28 07:53:56;;;;;;;157.23;50.83;;;;;;;;;;758550;182;918890;-66
2021/11/28 07:56:22;;;;;;;130.07;49.10;;;;;;;;;;757203;182;917737;-67
2021/11/28 07:58:46;;;;;;;145.67;49.20;;;;;;;;;;754810;182;918453;-67
2021/11/28 08:01:12;;;;;;;150.67;48.00;;;;;;;;;;758955;182;918390;-66
2021/11/28 08:03:38;;;;;;;141.73;40.12;;;;;;;;;;753710;182;919902;-66
2021/11/28 08:06:03;;;;;;;119.37;46.30;;;;;;;;;;753918;182;919530;-66
2021/11/28 08:08:32;;;;;;;172.80;58.93;;;;;;;;;;757118;182;920422;-65
2021/11/28 08:10:57;;;;;;;144.43;50.17;;;;;;;;;;762373;182;920222;-65
2021/11/28 08:13:23;;;;;;;142.47;48.90;;;;;;;;;;755166;182;918232;-66
2021/11/28 08:15:49;;;;;;;148.03;49.03;;;;;;;;;;755566;182;916698;-66
2021/11/28 08:18:15;;;;;;;159.73;51.43;;;;;;;;;;758337;182;915492;-66
2021/11/28 08:20:40;;;;;;;107.43;44.00;;;;;;;;;;759608;182;915366;-66
2021/11/28 08:23:06;;;;;;;108.30;39.83;;;;;;;;;;757770;182;918280;-66
2021/11/28 08:25:32;;;;;;;111.07;40.92;;;;;;;;;;759205;182;915804;-65
2021/11/28 08:27:58;;;;;;;151.60;54.50;;;;;;;;;;759722;182;917357;-65
2021/11/28 08:30:24;;;;;;;133.50;47.70;;;;;;;;;;760868;182;916149;-65
2021/11/28 08:32:50;;;;;;;144.05;56.53;;;;;;;;;;754283;182;916688;-64
2021/11/28 08:35:15;;;;;;;183.40;62.77;;;;;;;;;;763464;182;919461;-65
2021/11/28 08:37:41;;;;;;;148.23;62.10;;;;;;;;;;753021;183;919098;-65
2021/11/28 08:40:08;;;;;;;158.35;59.78;;;;;;;;;;759566;182;918503;-65
2021/11/28 08:42:34;;;;;;;132.80;47.73;;;;;;;;;;756382;182;1021475;-67
2021/11/28 08:45:00;;;;;;;137.40;52.13;;;;;;;;;;756253;183;919480;-65
2021/11/28 08:47:26;;;;;;;185.30;71.30;;;;;;;;;;758118;182;919709;-64
2021/11/28 08:49:52;;;;;;;251.50;92.47;;;;;;;;;;765155;183;619983;-64
2021/11/28 08:52:18;;;;;;;176.40;58.40;;;;;;;;;;760206;182;627322;-66
2021/11/28 08:54:43;;;;;;;151.03;53.50;;;;;;;;;;758004;182;626688;-65
2021/11/28 08:57:09;;;;;;;215.77;84.13;;;;;;;;;;762065;182;618156;-66
2021/11/28 08:59:35;;;;;;;151.80;58.47;;;;;;;;;;753525;186;610433;-66
2021/11/28 09:02:01;;;;;;;132.23;46.67;;;;;;;;;;761487;182;629389;-66
2021/11/28 09:04:27;;;;;;;131.80;46.17;;;;;;;;;;757305;184;919023;-65
2021/11/28 09:06:53;;;;;;;137.05;52.97;;;;;;;;;;762899;182;919402;-66
2021/11/28 09:09:19;;;;;;;132.27;46.70;;;;;;;;;;758945;182;920417;-66
2021/11/28 09:11:45;;;;;;;121.23;43.00;;;;;;;;;;753716;182;920071;-65
2021/11/28 09:14:11;;;;;;;222.63;91.93;;;;;;;;;;757729;182;920664;-65
2021/11/28 09:16:36;;;;;;;183.53;65.27;;;;;;;;;;753724;184;919729;-66
2021/11/28 09:19:07;;;;;;;137.60;53.10;;;;;;;;;;750061;184;919314;-66
2021/11/28 09:21:28;;;;;;;135.85;53.42;;;;;;;;;;757860;182;919379;-65
2021/11/28 09:26:26;;;;;;;182.37;77.43;;;;;;;;;;760591;182;919727;-65
2021/11/28 09:28:52;;;;;;;225.17;88.77;;;;;;;;;;752596;182;924435;-65
2021/11/28 09:31:18;;;;;;;271.77;127.20;;;;;;;;;;760013;182;918885;-65
2021/11/28 09:33:43;;;;;;;163.35;67.45;;;;;;;;;;759486;183;919555;-65
2021/11/28 09:36:09;;;;;;;272.20;124.70;;;;;;;;;;754618;183;919325;-66
2021/11/28 09:38:36;;;;;;;269.10;102.97;;;;;;;;;;759990;183;941966;-65
2021/11/28 09:41:03;;;;;;;234.23;94.73;;;;;;;;;;753769;184;919264;-64
2021/11/28 09:43:28;;;;;;;141.53;61.73;;;;;;;;;;763255;182;919510;-65
2021/11/28 09:45:55;;;;;;;138.27;52.27;;;;;;;;;;755322;182;918836;-65
2021/11/28 09:48:20;;;;;;;186.57;75.67;;;;;;;;;;760377;182;918767;-65
2021/11/28 09:50:46;;;;;;;151.37;64.53;;;;;;;;;;759792;182;919703;-64
2021/11/28 09:53:12;;;;;;;145.03;50.57;;;;;;;;;;752813;182;919667;-65
2021/11/28 09:55:38;;;;;;;140.03;62.40;;;;;;;;;;762850;183;918966;-65
2021/11/28 09:58:04;;;;;;;161.63;72.27;;;;;;;;;;758232;182;920140;-65
2021/11/28 10:00:29;;;;;;;184.67;64.93;;;;;;;;;;756653;182;919127;-65
2021/11/28 10:02:55;;;;;;;133.93;57.60;;;;;;;;;;758146;182;922914;-66
2021/11/28 10:05:21;;;;;;;171.90;69.30;;;;;;;;;;756791;182;920130;-62
2021/11/28 10:07:47;;;;;;;150.50;59.90;;;;;;;;;;758866;182;919580;-66
2021/11/28 10:10:13;;;;;;;117.37;48.13;;;;;;;;;;754425;182;919887;-66
2021/11/28 10:12:40;;;;;;;127.70;52.53;;;;;;;;;;759888;182;919490;-65
2021/11/28 10:15:06;;;;;;;126.27;51.30;;;;;;;;;;752325;181;920398;-65
2021/11/28 10:17:32;;;;;;;138.30;54.80;;;;;;;;;;750798;182;919293;-64
2021/11/28 10:19:58;;;;;;;142.50;60.67;;;;;;;;;;760244;182;920034;-65
2021/11/28 10:22:24;;;;;;;142.53;54.97;;;;;;;;;;754652;182;918826;-63
2021/11/28 10:24:49;;;;;;;163.50;62.33;;;;;;;;;;755712;182;919468;-64
2021/11/28 10:27:15;;;;;;;144.13;64.10;;;;;;;;;;757636;182;918303;-64
2021/11/28 10:29:41;;;;;;;127.30;57.90;;;;;;;;;;758073;182;929242;-64
2021/11/28 10:32:07;;;;;;;131.43;59.77;;;;;;;;;;760710;182;920700;-64
2021/11/28 10:34:36;;;;;;;132.50;57.07;;;;;;;;;;754903;182;919646;-64
2021/11/28 10:37:02;;;;;;;110.33;49.63;;;;;;;;;;764798;182;626994;-65
2021/11/28 10:39:28;;;;;;;122.17;50.93;;;;;;;;;;763681;182;918322;-65
2021/11/28 10:41:54;;;;;;;112.47;50.13;;;;;;;;;;756562;182;919947;-64
2021/11/28 10:44:19;;;;;;;96.93;46.10;;;;;;;;;;759913;182;917544;-66
2021/11/28 10:46:46;;;;;;;113.40;49.40;;;;;;;;;;760594;182;626975;-65
2021/11/28 10:49:11;;;;;;;123.97;51.03;;;;;;;;;;760877;183;616263;-65
2021/11/28 10:51:37;;;;;;;134.47;49.77;;;;;;;;;;756792;182;682611;-64
2021/11/28 10:54:04;;;;;;;139.07;62.27;;;;;;;;;;756074;185;918142;-65
2021/11/28 10:56:30;;;;;;;147.20;61.57;;;;;;;;;;759162;182;919322;-65
2021/11/28 10:58:55;;;;;;;165.23;68.47;;;;;;;;;;759604;182;617234;-65
2021/11/28 11:01:21;;;;;;;160.17;65.60;;;;;;;;;;759026;182;625041;-66
2021/11/28 11:03:48;;;;;;;153.03;61.30;;;;;;;;;;755501;181;916340;-67
2021/11/28 11:06:16;;;;;;;173.40;74.87;;;;;;;;;;760755;182;919116;-66
2021/11/28 11:08:41;;;;;;;236.80;100.70;;;;;;;;;;765013;182;617339;-66
2021/11/28 11:11:08;;;;;;;162.30;59.20;;;;;;;;;;760281;182;627251;-66
2021/11/28 11:13:34;;;;;;;152.43;65.47;;;;;;;;;;760173;182;633674;-66
2021/11/28 11:16:02;;;;;;;131.07;60.77;;;;;;;;;;757824;182;639089;-65
2021/11/28 11:18:25;;;;;;;120.67;55.83;;;;;;;;;;761986;182;615273;-66
2021/11/28 11:20:51;;;;;;;115.67;49.67;;;;;;;;;;759110;182;632444;-66
2021/11/28 11:23:23;;;;;;;127.93;51.40;;;;;;;;;;757312;182;751286;-66
2021/11/28 11:25:49;;;;;;;121.17;54.20;;;;;;;;;;759887;182;618951;-65
2021/11/28 11:28:15;;;;;;;111.07;48.03;;;;;;;;;;763005;182;622617;-66
2021/11/28 11:30:42;;;;;;;116.63;49.20;;;;;;;;;;754212;181;631252;-65
2021/11/28 11:33:08;;;;;;;150.43;59.63;;;;;;;;;;758346;184;627298;-65
2021/11/28 11:35:35;;;;;;;124.53;51.43;;;;;;;;;;761450;184;625976;-65
2021/11/28 11:38:00;;;;;;;112.77;50.27;;;;;;;;;;757720;182;615053;-66
2021/11/28 11:40:26;;;;;;;115.47;51.97;;;;;;;;;;758876;182;670488;-65
2021/11/28 11:42:52;;;;;;;121.97;55.40;;;;;;;;;;760940;182;626240;-65
2021/11/28 11:45:18;;;;;;;116.60;52.03;;;;;;;;;;764275;182;922057;-66
2021/11/28 11:47:43;;;;;;;129.65;53.40;;;;;;;;;;767031;182;918761;-66
2021/11/28 11:50:09;;;;;;;109.10;48.10;;;;;;;;;;769655;182;624482;-66
2021/11/28 11:52:35;;;;;;;94.43;42.23;;;;;;;;;;756973;184;617981;-64
2021/11/28 11:55:01;;;;;;;82.10;38.93;;;;;;;;;;762743;182;636877;-66
2021/11/28 11:57:33;;;;;;;82.80;41.70;;;;;;;;;;760420;183;637073;-66
2021/11/28 12:00:19;;;;;;;85.87;38.83;;;;;;;;;;768894;182;672638;-66
2021/11/28 12:02:45;;;;;;;90.10;40.90;;;;;;;;;;761870;183;619127;-66
2021/11/28 12:05:17;;;;;;;81.93;43.40;;;;;;;;;;764186;182;647844;-68
2021/11/28 12:07:46;;;;;;;99.43;45.37;;;;;;;;;;762654;182;626433;-67
2021/11/28 12:10:17;;;;;;;117.40;51.77;;;;;;;;;;761133;182;621438;-67
2021/11/28 12:12:43;;;;;;;110.40;52.40;;;;;;;;;;759776;184;614187;-68
2021/11/28 12:15:15;;;;;;;104.90;47.23;;;;;;;;;;761259;183;633806;-69
2021/11/28 12:17:42;;;;;;;95.57;43.93;;;;;;;;;;758724;182;633090;-70
2021/11/28 12:20:07;;;;;;;104.90;46.60;;;;;;;;;;761883;182;630904;-71
2021/11/28 12:22:45;;;;;;;121.47;50.90;;;;;;;;;;766515;182;629858;-71
2021/11/28 12:25:17;;;;;;;120.67;55.37;;;;;;;;;;757424;186;617474;-72
2021/11/28 12:27:42;;;;;;;92.27;50.13;;;;;;;;;;764131;182;641386;-72
2021/11/28 12:30:11;;;;;;;109.57;50.43;;;;;;;;;;764547;182;627029;-74
2021/11/28 12:32:37;;;;;;;184.73;95.20;;;;;;;;;;757624;182;620637;-74
2021/11/28 12:35:03;;;;;;;132.63;60.33;;;;;;;;;;757851;183;635793;-73
2021/11/28 12:37:30;;;;;;;105.90;49.80;;;;;;;;;;755342;183;621081;-75
2021/11/28 12:40:11;;;;;;;135.90;65.10;;;;;;;;;;755513;182;630619;-76
2021/11/28 12:42:41;;;;;;;150.37;68.53;;;;;;;;;;754035;182;618709;-77
2021/11/28 12:45:06;;;;;;;151.37;73.57;;;;;;;;;;767017;182;626583;-76
2021/11/28 12:47:33;;;;;;;106.33;58.17;;;;;;;;;;760250;183;613196;-75
2021/11/28 12:49:59;;;;;;;274.47;165.33;;;;;;;;;;758394;182;813573;-75
2021/11/28 12:52:33;;;;;;;99.13;52.10;;;;;;;;;;754161;182;815011;-75
2021/11/28 12:55:08;;;;;;;230.90;109.30;;;;;;;;;;761075;184;615784;-75
2021/11/28 12:57:34;;;;;;;113.23;60.03;;;;;;;;;;760386;182;816728;-75
2021/11/28 13:00:06;;;;;;;80.10;42.87;;;;;;;;;;765478;182;615342;-75
2021/11/28 13:02:37;;;;;;;75.27;38.83;;;;;;;;;;765047;182;629707;-76
2021/11/28 13:05:03;;;;;;;63.10;38.07;;;;;;;;;;755447;182;625430;-75
2021/11/28 13:07:29;;;;;;;91.33;45.00;;;;;;;;;;760030;182;615879;-74
2021/11/28 13:09:56;;;;;;;83.40;47.77;;;;;;;;;;759763;182;641496;-74
2021/11/28 13:12:21;;;;;;;113.43;57.40;;;;;;;;;;758150;182;636095;-74
2021/11/28 13:14:47;;;;;;;101.40;54.53;;;;;;;;;;762783;183;619517;-73
2021/11/28 13:17:13;;;;;;;107.97;54.33;;;;;;;;;;761067;182;616510;-73
2021/11/28 13:19:39;;;;;;;109.00;55.67;;;;;;;;;;762087;182;625382;-73
2021/11/28 13:22:10;;;;;;;85.50;47.27;;;;;;;;;;759874;184;641498;-74
2021/11/28 13:24:36;;;;;;;107.83;49.33;;;;;;;;;;762124;182;634155;-74
2021/11/28 13:27:02;;;;;;;104.27;50.30;;;;;;;;;;756614;182;738094;-74
2021/11/28 13:29:31;;;;;;;74.90;39.60;;;;;;;;;;759902;182;627338;-74
2021/11/28 13:31:59;;;;;;;86.70;47.80;;;;;;;;;;761355;182;632759;-73
2021/11/28 13:34:21;;;;;;;50.97;31.17;;;;;;;;;;758736;182;631966;-74
2021/11/28 13:36:48;;;;;;;54.73;28.73;;;;;;;;;;758255;182;620268;-73
2021/11/28 13:39:12;;;;;;;48.07;28.73;;;;;;;;;;763203;182;627999;-73
2021/11/28 13:41:38;;;;;;;47.87;29.07;;;;;;;;;;763289;182;636773;-74
2021/11/28 13:44:10;;;;;;;57.43;29.57;;;;;;;;;;759285;182;650021;-73
2021/11/28 13:46:35;;;;;;;63.03;33.40;;;;;;;;;;759978;182;626254;-73
2021/11/28 13:49:00;;;;;;;66.73;37.67;;;;;;;;;;767588;182;634468;-74
2021/11/28 13:51:32;;;;;;;100.40;47.23;;;;;;;;;;755474;182;631575;-73